WJA673 CYVR-CYYC
Flight info
| Callsign | WJA673 |
|---|---|
| Flight time | 1h 3m |
| Altitude | 35000 |
| Route | DAPED PETLI MENBO Q983 NORET IGVEP7 |
| Aircraft | B738/M-V/N |
Departure
| Time | 2026-05-06 00:23 |
|---|---|
| Airport | Vancouver International Airport (CYVR) |
Arrival
| Time | 2026-05-06 01:26 |
|---|---|
| Airport | Calgary International Airport (CYYC) |
| Time | Latitude | Longitude | Altitude | Speed | Heading |
|---|---|---|---|---|---|
| 2026-05-06 00:04 | 49.19274 | -123.18295 | 16 ft | 0 kts | 158° |
| 2026-05-06 00:04 | 49.19308 | -123.18316 | 16 ft | 0 kts | 158° |
| 2026-05-06 00:15 | 49.19307 | -123.18315 | 16 ft | 0 kts | 158° |
| 2026-05-06 00:17 | 49.19314 | -123.18319 | 25 ft | 2 kts | 154° |
| 2026-05-06 00:18 | 49.19337 | -123.18337 | 18 ft | 4 kts | 156° |
| 2026-05-06 00:18 | 49.19347 | -123.18342 | 18 ft | 0 kts | 215° |
| 2026-05-06 00:18 | 49.19350 | -123.18339 | 17 ft | 0 kts | 237° |
| 2026-05-06 00:18 | 49.19342 | -123.18366 | 18 ft | 4 kts | 251° |
| 2026-05-06 00:19 | 49.19341 | -123.18375 | 17 ft | 1 kts | 259° |
| 2026-05-06 00:19 | 49.19363 | -123.18527 | 17 ft | 21 kts | 298° |
| 2026-05-06 00:19 | 49.19394 | -123.18734 | 16 ft | 20 kts | 260° |
| 2026-05-06 00:19 | 49.19377 | -123.18933 | 16 ft | 18 kts | 294° |
| 2026-05-06 00:20 | 49.19466 | -123.19060 | 17 ft | 17 kts | 320° |
| 2026-05-06 00:20 | 49.19560 | -123.19170 | 18 ft | 17 kts | 322° |
| 2026-05-06 00:20 | 49.19650 | -123.19276 | 17 ft | 16 kts | 322° |
| 2026-05-06 00:20 | 49.19736 | -123.19381 | 18 ft | 15 kts | 321° |
| 2026-05-06 00:21 | 49.19819 | -123.19481 | 18 ft | 15 kts | 323° |
| 2026-05-06 00:21 | 49.19916 | -123.19595 | 19 ft | 19 kts | 322° |
| 2026-05-06 00:21 | 49.19986 | -123.19754 | 17 ft | 18 kts | 283° |
| 2026-05-06 00:21 | 49.20008 | -123.19939 | 16 ft | 17 kts | 276° |
| 2026-05-06 00:22 | 49.19926 | -123.20002 | 17 ft | 16 kts | 155° |
| 2026-05-06 00:22 | 49.19691 | -123.19728 | 19 ft | 83 kts | 142° |
| 2026-05-06 00:22 | 49.19025 | -123.18934 | 17 ft | 156 kts | 141° |
| 2026-05-06 00:22 | 49.18026 | -123.17766 | 309 ft | 198 kts | 142° |
| 2026-05-06 00:23 | 49.16862 | -123.16421 | 977 ft | 217 kts | 141° |
| 2026-05-06 00:23 | 49.15656 | -123.14988 | 1899 ft | 223 kts | 143° |
| 2026-05-06 00:23 | 49.14398 | -123.13564 | 2803 ft | 227 kts | 144° |
| 2026-05-06 00:23 | 49.13105 | -123.12074 | 3267 ft | 238 kts | 144° |
| 2026-05-06 00:24 | 49.11752 | -123.10499 | 3732 ft | 252 kts | 144° |
| 2026-05-06 00:24 | 49.10320 | -123.08833 | 4266 ft | 265 kts | 144° |
| 2026-05-06 00:24 | 49.08958 | -123.06869 | 4747 ft | 279 kts | 122° |
| 2026-05-06 00:24 | 49.08364 | -123.04049 | 4619 ft | 281 kts | 86° |
| 2026-05-06 00:25 | 49.08827 | -123.01223 | 4803 ft | 275 kts | 65° |
| 2026-05-06 00:25 | 49.09634 | -122.98603 | 4938 ft | 278 kts | 62° |
| 2026-05-06 00:25 | 49.10444 | -122.95909 | 5059 ft | 279 kts | 66° |
| 2026-05-06 00:25 | 49.11103 | -122.93126 | 5188 ft | 279 kts | 71° |
| 2026-05-06 00:26 | 49.11606 | -122.90274 | 5396 ft | 280 kts | 76° |
| 2026-05-06 00:26 | 49.12001 | -122.87236 | 5683 ft | 303 kts | 79° |
| 2026-05-06 00:26 | 49.12323 | -122.83921 | 5946 ft | 327 kts | 82° |
| 2026-05-06 00:26 | 49.12577 | -122.80364 | 6222 ft | 348 kts | 84° |
| 2026-05-06 00:27 | 49.12776 | -122.76592 | 6473 ft | 366 kts | 85° |
| 2026-05-06 00:27 | 49.12931 | -122.72706 | 6686 ft | 367 kts | 86° |
| 2026-05-06 00:27 | 49.13053 | -122.68775 | 6917 ft | 373 kts | 87° |
| 2026-05-06 00:27 | 49.13154 | -122.64821 | 7130 ft | 371 kts | 87° |
| 2026-05-06 00:28 | 49.13242 | -122.60895 | 7413 ft | 373 kts | 87° |
| 2026-05-06 00:28 | 49.13327 | -122.56865 | 7748 ft | 385 kts | 87° |
| 2026-05-06 00:28 | 49.13411 | -122.52758 | 8060 ft | 386 kts | 87° |
| 2026-05-06 00:28 | 49.13493 | -122.48646 | 8386 ft | 389 kts | 87° |
| 2026-05-06 00:29 | 49.13574 | -122.44492 | 8716 ft | 394 kts | 87° |
| 2026-05-06 00:29 | 49.13653 | -122.40300 | 9041 ft | 394 kts | 87° |
| 2026-05-06 00:29 | 49.13731 | -122.36126 | 9377 ft | 395 kts | 87° |
| 2026-05-06 00:29 | 49.13808 | -122.31924 | 9711 ft | 396 kts | 87° |
| 2026-05-06 00:30 | 49.13885 | -122.27709 | 10039 ft | 396 kts | 87° |
| 2026-05-06 00:30 | 49.13960 | -122.23489 | 10335 ft | 398 kts | 87° |
| 2026-05-06 00:30 | 49.14032 | -122.19315 | 10640 ft | 400 kts | 87° |
| 2026-05-06 00:30 | 49.14105 | -122.15058 | 10948 ft | 402 kts | 87° |
| 2026-05-06 00:31 | 49.14179 | -122.10762 | 11268 ft | 404 kts | 87° |
| 2026-05-06 00:31 | 49.14250 | -122.06459 | 11585 ft | 407 kts | 87° |
| 2026-05-06 00:31 | 49.14317 | -122.02128 | 11896 ft | 409 kts | 87° |
| 2026-05-06 00:31 | 49.14384 | -121.97774 | 12227 ft | 412 kts | 87° |
| 2026-05-06 00:32 | 49.14450 | -121.93376 | 12552 ft | 414 kts | 87° |
| 2026-05-06 00:32 | 49.14515 | -121.88966 | 12882 ft | 416 kts | 87° |
| 2026-05-06 00:32 | 49.14579 | -121.84541 | 13207 ft | 418 kts | 87° |
| 2026-05-06 00:32 | 49.14641 | -121.80089 | 13546 ft | 420 kts | 86° |
| 2026-05-06 00:33 | 49.14682 | -121.77129 | 13775 ft | 421 kts | 86° |
| 2026-05-06 00:33 | 49.14758 | -121.71137 | 14165 ft | 423 kts | 86° |
| 2026-05-06 00:33 | 49.14797 | -121.68154 | 14370 ft | 424 kts | 86° |
| 2026-05-06 00:33 | 49.14996 | -121.63667 | 14670 ft | 424 kts | 81° |
| 2026-05-06 00:34 | 49.15532 | -121.57750 | 15001 ft | 423 kts | 78° |
| 2026-05-06 00:34 | 49.15997 | -121.53312 | 15417 ft | 425 kts | 78° |
| 2026-05-06 00:34 | 49.16451 | -121.48819 | 15792 ft | 430 kts | 78° |
| 2026-05-06 00:34 | 49.16744 | -121.45806 | 16010 ft | 432 kts | 78° |
| 2026-05-06 00:35 | 49.17178 | -121.41193 | 16426 ft | 435 kts | 79° |
| 2026-05-06 00:35 | 49.17607 | -121.36664 | 16750 ft | 437 kts | 78° |
| 2026-05-06 00:35 | 49.18024 | -121.32040 | 17181 ft | 441 kts | 79° |
| 2026-05-06 00:35 | 49.18427 | -121.27377 | 17544 ft | 444 kts | 79° |
| 2026-05-06 00:36 | 49.18822 | -121.22707 | 18043 ft | 444 kts | 79° |
| 2026-05-06 00:36 | 49.19211 | -121.18032 | 18525 ft | 443 kts | 79° |
| 2026-05-06 00:36 | 49.19608 | -121.13371 | 19000 ft | 442 kts | 78° |
| 2026-05-06 00:36 | 49.20013 | -121.08688 | 19479 ft | 443 kts | 78° |
| 2026-05-06 00:37 | 49.20416 | -121.04017 | 19950 ft | 443 kts | 78° |
| 2026-05-06 00:37 | 49.20816 | -120.99354 | 20421 ft | 443 kts | 78° |
| 2026-05-06 00:37 | 49.21214 | -120.94697 | 20935 ft | 439 kts | 78° |
| 2026-05-06 00:37 | 49.21606 | -120.90057 | 21404 ft | 439 kts | 78° |
| 2026-05-06 00:38 | 49.21993 | -120.85423 | 21922 ft | 439 kts | 77° |
| 2026-05-06 00:38 | 49.22378 | -120.80792 | 22445 ft | 439 kts | 77° |
| 2026-05-06 00:38 | 49.22758 | -120.76225 | 22972 ft | 438 kts | 77° |
| 2026-05-06 00:38 | 49.23141 | -120.71602 | 23505 ft | 437 kts | 77° |
| 2026-05-06 00:39 | 49.23520 | -120.66988 | 23946 ft | 436 kts | 77° |
| 2026-05-06 00:39 | 49.23896 | -120.62390 | 24401 ft | 435 kts | 77° |
| 2026-05-06 00:39 | 49.24268 | -120.57808 | 24877 ft | 433 kts | 77° |
| 2026-05-06 00:39 | 49.24637 | -120.53245 | 25345 ft | 432 kts | 77° |
| 2026-05-06 00:40 | 49.25003 | -120.48694 | 25832 ft | 430 kts | 77° |
| 2026-05-06 00:40 | 49.25369 | -120.44142 | 26305 ft | 429 kts | 77° |
| 2026-05-06 00:40 | 49.25730 | -120.39625 | 26816 ft | 427 kts | 77° |
| 2026-05-06 00:40 | 49.26086 | -120.35128 | 27316 ft | 425 kts | 77° |
| 2026-05-06 00:41 | 49.26439 | -120.30651 | 27819 ft | 422 kts | 77° |
| 2026-05-06 00:41 | 49.26789 | -120.26195 | 28346 ft | 420 kts | 77° |
| 2026-05-06 00:41 | 49.27134 | -120.21766 | 28877 ft | 417 kts | 77° |
| 2026-05-06 00:41 | 49.27472 | -120.17417 | 29408 ft | 413 kts | 77° |
| 2026-05-06 00:42 | 49.27808 | -120.13076 | 29950 ft | 410 kts | 77° |
| 2026-05-06 00:42 | 49.28139 | -120.08759 | 30408 ft | 405 kts | 77° |
| 2026-05-06 00:42 | 49.28466 | -120.04486 | 30882 ft | 401 kts | 76° |
| 2026-05-06 00:42 | 49.28787 | -120.00273 | 31355 ft | 396 kts | 76° |
| 2026-05-06 00:43 | 49.29104 | -119.96105 | 31847 ft | 391 kts | 76° |
| 2026-05-06 00:43 | 49.29415 | -119.91990 | 32329 ft | 386 kts | 76° |
| 2026-05-06 00:43 | 49.29719 | -119.87935 | 32815 ft | 380 kts | 76° |
| 2026-05-06 00:43 | 49.30016 | -119.83961 | 33330 ft | 372 kts | 75° |
| 2026-05-06 00:44 | 49.30309 | -119.80037 | 33731 ft | 369 kts | 75° |
| 2026-05-06 00:44 | 49.30907 | -119.72108 | 33758 ft | 384 kts | 75° |
| 2026-05-06 00:45 | 49.31515 | -119.63856 | 33886 ft | 394 kts | 75° |
| 2026-05-06 00:45 | 49.32163 | -119.59826 | 33890 ft | 384 kts | 57° |
| 2026-05-06 00:45 | 49.33335 | -119.56153 | 33992 ft | 384 kts | 55° |
| 2026-05-06 00:46 | 49.35833 | -119.48783 | 34090 ft | 394 kts | 55° |
| 2026-05-06 00:46 | 49.38369 | -119.41257 | 34185 ft | 404 kts | 55° |
| 2026-05-06 00:47 | 49.40939 | -119.33494 | 34302 ft | 413 kts | 56° |
| 2026-05-06 00:47 | 49.43552 | -119.25510 | 34402 ft | 423 kts | 56° |
| 2026-05-06 00:48 | 49.46213 | -119.17335 | 34493 ft | 432 kts | 56° |
| 2026-05-06 00:48 | 49.48918 | -119.08989 | 34590 ft | 439 kts | 56° |
| 2026-05-06 00:49 | 49.51659 | -119.00506 | 34677 ft | 446 kts | 56° |
| 2026-05-06 00:49 | 49.54426 | -118.91906 | 34868 ft | 449 kts | 56° |
| 2026-05-06 00:50 | 49.57185 | -118.83308 | 34912 ft | 452 kts | 56° |
| 2026-05-06 00:50 | 49.59974 | -118.74587 | 34919 ft | 455 kts | 56° |
| 2026-05-06 00:51 | 49.62696 | -118.66006 | 34903 ft | 430 kts | 56° |
| 2026-05-06 00:51 | 49.63979 | -118.61939 | 34900 ft | 414 kts | 56° |
| 2026-05-06 00:51 | 49.65235 | -118.57971 | 34921 ft | 410 kts | 56° |
| 2026-05-06 00:52 | 49.67735 | -118.50113 | 34927 ft | 407 kts | 55° |
| 2026-05-06 00:52 | 49.70213 | -118.42289 | 34924 ft | 405 kts | 55° |
| 2026-05-06 00:53 | 49.72672 | -118.34491 | 34926 ft | 403 kts | 55° |
| 2026-05-06 00:53 | 49.75118 | -118.26704 | 34931 ft | 403 kts | 55° |
| 2026-05-06 00:54 | 49.77562 | -118.18895 | 34932 ft | 403 kts | 55° |
| 2026-05-06 00:54 | 49.80006 | -118.11067 | 34929 ft | 404 kts | 55° |
| 2026-05-06 00:55 | 49.82425 | -118.03279 | 34940 ft | 405 kts | 55° |
| 2026-05-06 00:55 | 49.84874 | -117.95379 | 34934 ft | 407 kts | 55° |
| 2026-05-06 00:56 | 49.87319 | -117.87462 | 34945 ft | 407 kts | 56° |
| 2026-05-06 00:56 | 49.89764 | -117.79521 | 34948 ft | 408 kts | 55° |
| 2026-05-06 00:57 | 49.92208 | -117.71556 | 34953 ft | 409 kts | 56° |
| 2026-05-06 00:57 | 49.94638 | -117.63611 | 34946 ft | 409 kts | 56° |
| 2026-05-06 00:58 | 49.97049 | -117.55676 | 34949 ft | 403 kts | 55° |
| 2026-05-06 00:58 | 49.99439 | -117.47815 | 34963 ft | 402 kts | 55° |
| 2026-05-06 00:59 | 50.01808 | -117.39973 | 34982 ft | 400 kts | 55° |
| 2026-05-06 00:59 | 50.04193 | -117.32100 | 34975 ft | 405 kts | 55° |
| 2026-05-06 01:00 | 50.06609 | -117.24107 | 34979 ft | 410 kts | 56° |
| 2026-05-06 01:00 | 50.09002 | -117.16122 | 34994 ft | 406 kts | 56° |
| 2026-05-06 01:01 | 50.11351 | -117.08238 | 34986 ft | 398 kts | 55° |
| 2026-05-06 01:01 | 50.13651 | -117.00509 | 35010 ft | 392 kts | 55° |
| 2026-05-06 01:02 | 50.15980 | -116.92710 | 35005 ft | 402 kts | 55° |
| 2026-05-06 01:02 | 50.17172 | -116.88710 | 34756 ft | 411 kts | 55° |
| 2026-05-06 01:02 | 50.18375 | -116.84653 | 34317 ft | 410 kts | 56° |
| 2026-05-06 01:02 | 50.19556 | -116.80634 | 33890 ft | 404 kts | 55° |
| 2026-05-06 01:03 | 50.20720 | -116.76661 | 33382 ft | 401 kts | 55° |
| 2026-05-06 01:03 | 50.21877 | -116.72724 | 32908 ft | 401 kts | 56° |
| 2026-05-06 01:03 | 50.23043 | -116.68761 | 32508 ft | 404 kts | 56° |
| 2026-05-06 01:03 | 50.24211 | -116.64800 | 32032 ft | 408 kts | 56° |
| 2026-05-06 01:04 | 50.25412 | -116.60711 | 31607 ft | 410 kts | 56° |
| 2026-05-06 01:04 | 50.26599 | -116.56649 | 31155 ft | 411 kts | 56° |
| 2026-05-06 01:04 | 50.27773 | -116.52625 | 30745 ft | 412 kts | 56° |
| 2026-05-06 01:04 | 50.28964 | -116.48535 | 30308 ft | 413 kts | 56° |
| 2026-05-06 01:05 | 50.30169 | -116.44390 | 29858 ft | 414 kts | 56° |
| 2026-05-06 01:05 | 50.31347 | -116.40332 | 29361 ft | 415 kts | 57° |
| 2026-05-06 01:05 | 50.32270 | -116.37148 | 28985 ft | 415 kts | 57° |
| 2026-05-06 01:05 | 50.33460 | -116.33034 | 28499 ft | 415 kts | 57° |
| 2026-05-06 01:06 | 50.34651 | -116.28916 | 28022 ft | 416 kts | 57° |
| 2026-05-06 01:06 | 50.35843 | -116.24786 | 27573 ft | 417 kts | 57° |
| 2026-05-06 01:06 | 50.37041 | -116.20634 | 27098 ft | 420 kts | 57° |
| 2026-05-06 01:06 | 50.38252 | -116.16432 | 26661 ft | 426 kts | 58° |
| 2026-05-06 01:07 | 50.39456 | -116.12151 | 26261 ft | 433 kts | 60° |
| 2026-05-06 01:07 | 50.40516 | -116.07707 | 25757 ft | 437 kts | 63° |
| 2026-05-06 01:07 | 50.41487 | -116.03197 | 25332 ft | 436 kts | 64° |
| 2026-05-06 01:07 | 50.42430 | -115.98686 | 24901 ft | 434 kts | 64° |
| 2026-05-06 01:08 | 50.43372 | -115.94210 | 24482 ft | 430 kts | 64° |
| 2026-05-06 01:08 | 50.44319 | -115.89779 | 24074 ft | 427 kts | 63° |
| 2026-05-06 01:08 | 50.45271 | -115.85387 | 23647 ft | 422 kts | 63° |
| 2026-05-06 01:08 | 50.46209 | -115.81079 | 23113 ft | 411 kts | 63° |
| 2026-05-06 01:09 | 50.47124 | -115.76894 | 22608 ft | 399 kts | 63° |
| 2026-05-06 01:09 | 50.48016 | -115.72817 | 22072 ft | 391 kts | 63° |
| 2026-05-06 01:09 | 50.48877 | -115.68872 | 21534 ft | 383 kts | 63° |
| 2026-05-06 01:09 | 50.49731 | -115.64952 | 21045 ft | 375 kts | 63° |
| 2026-05-06 01:10 | 50.50566 | -115.61116 | 20552 ft | 369 kts | 63° |
| 2026-05-06 01:10 | 50.51391 | -115.57329 | 20071 ft | 364 kts | 63° |
| 2026-05-06 01:10 | 50.52211 | -115.53581 | 19621 ft | 360 kts | 63° |
| 2026-05-06 01:10 | 50.53024 | -115.49882 | 19199 ft | 357 kts | 63° |
| 2026-05-06 01:11 | 50.53820 | -115.46212 | 18705 ft | 354 kts | 63° |
| 2026-05-06 01:11 | 50.54620 | -115.42573 | 18198 ft | 351 kts | 63° |
| 2026-05-06 01:11 | 50.55416 | -115.38965 | 17664 ft | 347 kts | 63° |
| 2026-05-06 01:11 | 50.56213 | -115.35397 | 17135 ft | 344 kts | 63° |
| 2026-05-06 01:12 | 50.57007 | -115.31855 | 16588 ft | 343 kts | 63° |
| 2026-05-06 01:12 | 50.57780 | -115.28324 | 16049 ft | 340 kts | 64° |
| 2026-05-06 01:12 | 50.58579 | -115.24858 | 15386 ft | 336 kts | 64° |
| 2026-05-06 01:12 | 50.59332 | -115.21389 | 14836 ft | 333 kts | 63° |
| 2026-05-06 01:13 | 50.59945 | -115.17828 | 14411 ft | 340 kts | 70° |
| 2026-05-06 01:13 | 50.60561 | -115.14240 | 14082 ft | 336 kts | 65° |
| 2026-05-06 01:13 | 50.61296 | -115.10804 | 14033 ft | 335 kts | 63° |
| 2026-05-06 01:13 | 50.62062 | -115.07307 | 14037 ft | 333 kts | 64° |
| 2026-05-06 01:14 | 50.63549 | -115.00428 | 14054 ft | 334 kts | 64° |
| 2026-05-06 01:14 | 50.64291 | -114.96920 | 14047 ft | 332 kts | 64° |
| 2026-05-06 01:14 | 50.65007 | -114.93520 | 14073 ft | 330 kts | 64° |
| 2026-05-06 01:15 | 50.65729 | -114.90094 | 14035 ft | 328 kts | 64° |
| 2026-05-06 01:15 | 50.66438 | -114.86720 | 14059 ft | 318 kts | 64° |
| 2026-05-06 01:15 | 50.67122 | -114.83446 | 14058 ft | 312 kts | 64° |
| 2026-05-06 01:15 | 50.67793 | -114.80207 | 14085 ft | 311 kts | 64° |
| 2026-05-06 01:16 | 50.68474 | -114.76946 | 13827 ft | 315 kts | 64° |
| 2026-05-06 01:16 | 50.69160 | -114.73657 | 13403 ft | 315 kts | 65° |
| 2026-05-06 01:16 | 50.69836 | -114.70389 | 13034 ft | 312 kts | 65° |
| 2026-05-06 01:16 | 50.70521 | -114.67151 | 12626 ft | 308 kts | 63° |
| 2026-05-06 01:17 | 50.71617 | -114.64342 | 12236 ft | 298 kts | 43° |
| 2026-05-06 01:17 | 50.73050 | -114.61998 | 11874 ft | 297 kts | 41° |
| 2026-05-06 01:17 | 50.74508 | -114.59671 | 11486 ft | 299 kts | 42° |
| 2026-05-06 01:17 | 50.75973 | -114.57315 | 11114 ft | 301 kts | 42° |
| 2026-05-06 01:18 | 50.77441 | -114.54939 | 10747 ft | 303 kts | 43° |
| 2026-05-06 01:18 | 50.78916 | -114.52536 | 10347 ft | 306 kts | 43° |
| 2026-05-06 01:18 | 50.80409 | -114.50092 | 9831 ft | 311 kts | 44° |
| 2026-05-06 01:18 | 50.81938 | -114.47659 | 9294 ft | 309 kts | 42° |
| 2026-05-06 01:19 | 50.83484 | -114.45323 | 8761 ft | 305 kts | 42° |
| 2026-05-06 01:19 | 50.85015 | -114.43026 | 8231 ft | 302 kts | 42° |
| 2026-05-06 01:19 | 50.86503 | -114.40780 | 7719 ft | 298 kts | 43° |
| 2026-05-06 01:19 | 50.87993 | -114.38518 | 7221 ft | 295 kts | 44° |
| 2026-05-06 01:20 | 50.89463 | -114.36280 | 6738 ft | 291 kts | 44° |
| 2026-05-06 01:20 | 50.90820 | -114.34025 | 6548 ft | 275 kts | 57° |
| 2026-05-06 01:20 | 50.91531 | -114.31357 | 6517 ft | 254 kts | 78° |
| 2026-05-06 01:20 | 50.91653 | -114.29559 | 6507 ft | 241 kts | 90° |
| 2026-05-06 01:21 | 50.91571 | -114.26193 | 6494 ft | 216 kts | 92° |
| 2026-05-06 01:21 | 50.91475 | -114.24664 | 6503 ft | 204 kts | 95° |
| 2026-05-06 01:21 | 50.91404 | -114.22445 | 6537 ft | 206 kts | 92° |
| 2026-05-06 01:21 | 50.91332 | -114.20016 | 6587 ft | 236 kts | 92° |
| 2026-05-06 01:22 | 50.91246 | -114.17300 | 6579 ft | 252 kts | 92° |
| 2026-05-06 01:22 | 50.91155 | -114.14514 | 6537 ft | 253 kts | 92° |
| 2026-05-06 01:22 | 50.91063 | -114.11750 | 6524 ft | 250 kts | 92° |
| 2026-05-06 01:22 | 50.91315 | -114.09078 | 6511 ft | 245 kts | 62° |
| 2026-05-06 01:23 | 50.92468 | -114.07133 | 6539 ft | 246 kts | 34° |
| 2026-05-06 01:23 | 50.93926 | -114.05668 | 6526 ft | 247 kts | 33° |
| 2026-05-06 01:23 | 50.95349 | -114.04267 | 6495 ft | 232 kts | 33° |
| 2026-05-06 01:23 | 50.96661 | -114.02997 | 6497 ft | 210 kts | 30° |
| 2026-05-06 01:24 | 50.97979 | -114.02438 | 6496 ft | 186 kts | 4° |
| 2026-05-06 01:24 | 50.99245 | -114.02263 | 6501 ft | 182 kts | 7° |
| 2026-05-06 01:24 | 51.00485 | -114.02156 | 6473 ft | 180 kts | 3° |
| 2026-05-06 01:24 | 51.01760 | -114.02117 | 6000 ft | 186 kts | 1° |
| 2026-05-06 01:25 | 51.03077 | -114.02161 | 5386 ft | 190 kts | 1° |
| 2026-05-06 01:25 | 51.04363 | -114.02189 | 5018 ft | 176 kts | 2° |
| 2026-05-06 01:25 | 51.05544 | -114.02182 | 4701 ft | 168 kts | 2° |
| 2026-05-06 01:25 | 51.06740 | -114.02153 | 4155 ft | 173 kts | 3° |
| 2026-05-06 01:26 | 51.07923 | -114.02149 | 3940 ft | 170 kts | 2° |
| 2026-05-06 01:26 | 51.09129 | -114.02140 | 3731 ft | 176 kts | 3° |
| 2026-05-06 01:26 | 51.10350 | -114.02140 | 3552 ft | 170 kts | 3° |
| 2026-05-06 01:26 | 51.11136 | -114.02139 | 3556 ft | 45 kts | 0° |
| 2026-05-06 01:27 | 51.11341 | -114.02133 | 3555 ft | 25 kts | 1° |
| 2026-05-06 01:27 | 51.11429 | -114.02057 | 3554 ft | 12 kts | 76° |
| 2026-05-06 01:27 | 51.11429 | -114.01975 | 3555 ft | 4 kts | 92° |
| 2026-05-06 01:27 | 51.11429 | -114.01946 | 3556 ft | 0 kts | 90° |
| 2026-05-06 01:28 | 51.11429 | -114.01867 | 3556 ft | 13 kts | 90° |
| 2026-05-06 01:28 | 51.11427 | -114.01681 | 3556 ft | 21 kts | 90° |
| 2026-05-06 01:28 | 51.11424 | -114.01413 | 3555 ft | 27 kts | 91° |
| 2026-05-06 01:29 | 51.11421 | -114.01122 | 3553 ft | 25 kts | 91° |
| 2026-05-06 01:29 | 51.11418 | -114.00927 | 3552 ft | 8 kts | 91° |
| 2026-05-06 01:29 | 51.11420 | -114.00841 | 3551 ft | 11 kts | 81° |
| 2026-05-06 01:29 | 51.11466 | -114.00753 | 3550 ft | 13 kts | 30° |
| 2026-05-06 01:30 | 51.11567 | -114.00687 | 3549 ft | 19 kts | 9° |
| 2026-05-06 01:30 | 51.11692 | -114.00597 | 3549 ft | 21 kts | 30° |
| 2026-05-06 01:30 | 51.11811 | -114.00455 | 3555 ft | 21 kts | 64° |
| 2026-05-06 01:30 | 51.11824 | -114.00222 | 3559 ft | 22 kts | 91° |
| 2026-05-06 01:31 | 51.11824 | -113.99971 | 3566 ft | 23 kts | 90° |
| 2026-05-06 01:31 | 51.11824 | -113.99715 | 3574 ft | 23 kts | 89° |
| 2026-05-06 01:31 | 51.11851 | -113.99481 | 3572 ft | 21 kts | 45° |
| 2026-05-06 01:31 | 51.12005 | -113.99450 | 3580 ft | 25 kts | 0° |
| 2026-05-06 01:32 | 51.12189 | -113.99447 | 3585 ft | 28 kts | 1° |
| 2026-05-06 01:32 | 51.12397 | -113.99442 | 3583 ft | 31 kts | 358° |
| 2026-05-06 01:32 | 51.12625 | -113.99449 | 3584 ft | 34 kts | 360° |
| 2026-05-06 01:32 | 51.12870 | -113.99442 | 3585 ft | 36 kts | 1° |
| 2026-05-06 01:33 | 51.13107 | -113.99466 | 3590 ft | 20 kts | 339° |
| 2026-05-06 01:33 | 51.13133 | -113.99517 | 3591 ft | 1 kts | 269° |
| 2026-05-06 01:33 | 51.13097 | -113.99599 | 3582 ft | 12 kts | 226° |
| 2026-05-06 01:33 | 51.12990 | -113.99633 | 3585 ft | 23 kts | 177° |
| 2026-05-06 01:34 | 51.12879 | -113.99767 | 3583 ft | 21 kts | 254° |
| 2026-05-06 01:34 | 51.12921 | -113.99883 | 3584 ft | 6 kts | 352° |
| 2026-05-06 01:34 | 51.12924 | -113.99884 | 3581 ft | 1 kts | 352° |
| 2026-05-06 01:34 | 51.12928 | -113.99884 | 3580 ft | 1 kts | 357° |
| 2026-05-06 01:35 | 51.12932 | -113.99885 | 3580 ft | 1 kts | 357° |